Hub


Voltar

 INFORMAÇÕES METEOROLÓGICAS

METAR FOR MHSC


ADDS - METARS form results

(1022 UTC 21 August 2019)
Data provider http://aviationweather.gov/metar/data/
 
METAR text: MHSC 211018Z AUTO 00000KT 0400 FG BKN003 20/20 A2998 RMK AO2 VIS 0400V6000 SLPNO RVRNO $
Conditions at: MHSC (SOTO CANO AB , HN) observed 1018 UTC 21 August 2019
Temperature: 20.0°C (68°F)
Dewpoint: 20.0°C (68°F) [RH = 100%]
Pressure (altimeter): 29.98 inches Hg (1015.3 mb)
Winds: calm
Visibility: 0.25 miles (0.40 km)
Ceiling: 300 feet AGL
Clouds: broken clouds at 300 feet AGL
Weather: FG  (fog)
SOME DATA ABOVE MAY BE INACCURATE!!!
"$" is an indication the sensor requires maintenance

METAR text: MHSC 211008Z AUTO 19004KT 8000 BR BKN003 20/20 A2998 RMK AO2 BKN V FEW SLPNO $
Conditions at: MHSC (SOTO CANO AB , HN) observed 1008 UTC 21 August 2019
Temperature: 20.0°C (68°F)
Dewpoint: 20.0°C (68°F) [RH = 100%]
Pressure (altimeter): 29.98 inches Hg (1015.3 mb)
Winds: from the S (190 degrees) at 5 MPH (4 knots; 2.1 m/s)
Visibility: 5 miles ( 8 km)
Ceiling: 300 feet AGL
Clouds: broken clouds at 300 feet AGL
Weather: BR  (mist)
SOME DATA ABOVE MAY BE INACCURATE!!!
"$" is an indication the sensor requires maintenance

METAR text: MHSC 210958Z AUTO 17003KT 8000 BR FEW003 21/21 A2998 RMK AO2 SLPNO T02060206 $
Conditions at: MHSC (SOTO CANO AB , HN) observed 0958 UTC 21 August 2019
Temperature: 20.6°C (69°F)
Dewpoint: 20.6°C (69°F) [RH = 100%]
Pressure (altimeter): 29.98 inches Hg (1015.3 mb)
Winds: from the S (170 degrees) at 3 MPH (3 knots; 1.5 m/s)
Visibility: 5 miles ( 8 km)
Ceiling: at least 12,000 feet AGL
Clouds: few clouds at 300 feet AGL
Weather: BR  (mist)
SOME DATA ABOVE MAY BE INACCURATE!!!
"$" is an indication the sensor requires maintenance

Forecast for: AMD
Text: TAF AMD MHSC 210308Z 2103/2203 VRB06KT 9999 BKN120 QNH2996INS
Forecast period: 0300 to 1500 UTC 21 August 2019
Forecast type: FROM: standard forecast or significant change
Winds: variable direction winds at 7 MPH (6 knots; 3.1 m/s)
Visibility: 6 or more miles 10+ km)
Ceiling: 12000 feet AGL
Clouds: broken clouds at 12000 feet AGL
Weather: no significant weather forecast for this period
Text: BECMG 2115/2116 01009KT 9999 FEW050 SCT080 QNH2999INS
Forecast period: 1500 to 2100 UTC 21 August 2019
Forecast type: BECOMING: Conditions expected to become as follows by 1600 UTC 21 August 2019
Winds: from the N (10 degrees) at 10 MPH (9 knots; 4.6 m/s)
Visibility: 6 or more miles 10+ km)
Ceiling: at least 12,000 feet AGL
Clouds: few clouds at 5000 feet AGL
scattered clouds at 8000 feet AGL
Weather: no significant weather forecast for this period
Text: BECMG 2121/2122 06012KT 9999 SCT050 BKN080 QNH2989INS
Forecast period: 2100 UTC 21 August 2019 to 0200 UTC 22 August 2019
Forecast type: BECOMING: Conditions expected to become as follows by 2200 UTC 21 August 2019
Winds: from the ENE (60 degrees) at 14 MPH (12 knots; 6.2 m/s)
Visibility: 6 or more miles 10+ km)
Ceiling: 8000 feet AGL
Clouds: scattered clouds at 5000 feet AGL
broken clouds at 8000 feet AGL
Weather: no significant weather forecast for this period
Text: BECMG 2202/2203 35009KT 9000 HZ VCTS FEW050CB BKN070 QNH2996INS TX32/2120Z TN21/2111Z LAST NO AMDS AFT 2103 NEXT 2113
Forecast period: 0200 to 0300 UTC 22 August 2019
Forecast type: BECOMING: Conditions expected to become as follows by 0300 UTC 22 August 2019
Winds: from the N (350 degrees) at 10 MPH (9 knots; 4.6 m/s)
Visibility: 6 miles (9 km)
Ceiling: 7000 feet AGL
Clouds: few clouds at 5000 feet AGL
broken clouds at 7000 feet AGL
Weather: HZ VCTS  (haze, thunderstorm in vicinity)


 MAPA DO AEROPORTO


 INFORMAÇÕES DA PISTA

Pista 17 Tamanho da pista 8008 ft Largura da pista 148 ft
Elevação da pista 2061 ft Ranhura da pista 0 ft Proa da pista 170
Pista 35 Tamanho da pista 8008 ft Largura da pista 148 ft
Elevação da pista 2036 ft Ranhura da pista 0 ft Proa da pista 350

 FREQUÊNCIAS DO AEROPORTO

Tipo AAS Nome VFR ADVSY Frequência 125.8 MHZ
Tipo ACC Nome CENAMER AC Frequência 89.1 MHZ
Tipo APP Nome APP Frequência 125.8 MHZ
Tipo GND Nome GND Frequência 121.9 MHZ
Tipo MISC Nome SKYWATCH A Frequência 42.5 MHZ
Tipo OPS Nome WARRIOR OP Frequência 51.5 MHZ
Tipo PMSV Nome PMSV METRO Frequência 34.06 MHZ
Tipo POST Nome COMD POST Frequência 33.13 MHZ
Tipo PTD Nome PTD Frequência 135.5 MHZ
Tipo RDO Nome TEGUCIGALP Frequência 126.7 MHZ
Tipo TWR Nome TWR Frequência 118.9 MHZ

 AUXÍLIOS DE NAVEGAÇÃO PRÓXIMOS AO AEROPORTO

Tipo VORTAC Nome Soto Cano Frequência 114900 KHZ